createdAt,value
2019-01-28T00:00:52.712Z,6.60
2019-01-28T00:03:19.386Z,6.60
2019-01-28T00:05:46.088Z,6.60
2019-01-28T00:08:12.940Z,6.60
2019-01-28T00:10:39.789Z,6.60
2019-01-28T00:13:06.592Z,6.60
2019-01-28T00:15:33.372Z,6.60
2019-01-28T00:18:00.261Z,6.60
2019-01-28T00:20:27.050Z,6.60
2019-01-28T00:22:54.281Z,6.60
2019-01-28T00:25:20.958Z,6.60
2019-01-28T00:27:47.862Z,6.60
2019-01-28T00:30:14.944Z,6.60
2019-01-28T00:32:42.814Z,6.60
2019-01-28T00:35:09.546Z,6.60
2019-01-28T00:37:36.349Z,6.60
2019-01-28T00:40:04.034Z,6.60
2019-01-28T00:42:30.743Z,6.60
2019-01-28T00:44:57.495Z,6.60
2019-01-28T00:47:24.338Z,6.60
2019-01-28T00:49:51.490Z,6.60
2019-01-28T00:52:18.285Z,6.50
2019-01-28T00:54:45.368Z,6.60
2019-01-28T00:57:12.332Z,6.50
2019-01-28T00:59:39.059Z,6.50
2019-01-28T01:02:07.540Z,6.50
2019-01-28T01:04:34.288Z,6.50
2019-01-28T01:07:01.050Z,6.50
2019-01-28T01:09:28.095Z,6.50
2019-01-28T01:11:54.668Z,6.50
2019-01-28T01:14:21.775Z,6.50
2019-01-28T01:16:48.704Z,6.50
2019-01-28T01:19:16.853Z,6.50
2019-01-28T01:21:44.772Z,6.50
2019-01-28T01:24:11.385Z,6.50
2019-01-28T01:26:38.018Z,6.50
2019-01-28T01:29:04.965Z,6.30
2019-01-28T01:31:31.578Z,6.50
2019-01-28T01:33:58.151Z,6.50
2019-01-28T01:36:24.754Z,6.50
2019-01-28T01:38:51.454Z,6.50
2019-01-28T01:41:18.104Z,6.50
2019-01-28T01:43:44.697Z,6.50
2019-01-28T01:46:13.202Z,6.50
2019-01-28T01:48:39.791Z,6.50
2019-01-28T01:51:06.531Z,6.50
2019-01-28T01:53:33.418Z,6.50
2019-01-28T01:56:00.161Z,6.50
2019-01-28T01:58:28.650Z,6.50
2019-01-28T02:00:55.295Z,6.10
2019-01-28T02:03:21.925Z,6.50
2019-01-28T02:05:48.878Z,6.40
2019-01-28T02:08:17.358Z,6.50
2019-01-28T02:10:44.533Z,6.50
2019-01-28T02:13:11.129Z,6.40
2019-01-28T02:15:37.929Z,6.40
2019-01-28T02:18:04.743Z,6.10
2019-01-28T02:20:31.393Z,6.40
2019-01-28T02:22:58.109Z,6.40
2019-01-28T02:25:25.168Z,6.40
2019-01-28T02:27:51.882Z,6.10
2019-01-28T02:30:19.378Z,6.40
2019-01-28T02:52:08.841Z,6.40
2019-01-28T02:54:36.690Z,6.40
2019-01-28T02:57:03.359Z,6.40
2019-01-28T02:59:30.313Z,6.40
2019-01-28T03:01:59.008Z,6.40
2019-01-28T03:04:25.480Z,6.40
2019-01-28T03:06:53.815Z,6.40
2019-01-28T03:09:20.876Z,6.40
2019-01-28T03:11:47.477Z,6.40
2019-01-28T03:14:14.114Z,6.40
2019-01-28T03:17:08.807Z,6.40
2019-01-28T03:19:35.550Z,6.40
2019-01-28T03:22:02.373Z,6.40
2019-01-28T03:24:30.202Z,6.40
2019-01-28T03:26:56.923Z,6.40
2019-01-28T03:29:23.707Z,6.40
2019-01-28T03:31:50.521Z,6.40
2019-01-28T03:34:18.240Z,6.40
2019-01-28T03:36:44.909Z,6.40
2019-01-28T03:39:11.636Z,6.40
2019-01-28T03:41:38.493Z,6.40
2019-01-28T03:44:05.357Z,6.40
2019-01-28T03:46:33.137Z,6.40
2019-01-28T03:49:00.266Z,6.40
2019-01-28T03:51:26.883Z,6.40
2019-01-28T03:53:53.637Z,6.40
2019-01-28T03:56:20.598Z,6.40
2019-01-28T03:58:48.635Z,6.40
2019-01-28T04:01:15.292Z,6.40
2019-01-28T04:03:42.013Z,6.40
2019-01-28T04:06:08.634Z,6.30
2019-01-28T04:08:36.533Z,6.40
2019-01-28T04:11:03.233Z,6.40
2019-01-28T04:13:30.190Z,6.30
2019-01-28T04:15:56.799Z,6.40
2019-01-28T04:18:24.869Z,6.30
2019-01-28T04:20:51.685Z,6.40
2019-01-28T04:23:18.528Z,6.40
2019-01-28T04:25:45.135Z,6.40
2019-01-28T04:28:14.802Z,6.30
2019-01-28T04:30:41.425Z,6.30
2019-01-28T04:33:08.403Z,6.00
2019-01-28T04:35:35.203Z,6.30
2019-01-28T04:38:02.130Z,6.30
2019-01-28T04:40:29.108Z,6.30
2019-01-28T04:42:56.244Z,6.30
2019-01-28T04:45:22.901Z,6.30
2019-01-28T04:47:49.612Z,6.30
2019-01-28T04:50:16.236Z,6.30
2019-01-28T04:52:43.998Z,6.30
2019-01-28T04:55:10.922Z,6.30
2019-01-28T04:57:37.578Z,6.30
2019-01-28T05:00:04.558Z,6.30
2019-01-28T05:02:31.302Z,6.30
2019-01-28T05:04:57.937Z,6.30
2019-01-28T05:07:24.680Z,6.30
2019-01-28T05:09:51.281Z,6.30
2019-01-28T05:12:18.283Z,6.30
2019-01-28T05:14:44.972Z,6.30
2019-01-28T05:17:12.877Z,6.30
2019-01-28T05:19:39.629Z,6.30
2019-01-28T05:22:16.293Z,6.30
2019-01-28T05:24:44.214Z,6.30
2019-01-28T05:27:10.944Z,6.30
2019-01-28T05:29:37.666Z,6.30
2019-01-28T05:32:04.275Z,6.30
2019-01-28T05:34:31.003Z,6.30
2019-01-28T05:36:57.722Z,6.30
2019-01-28T05:39:24.553Z,6.30
2019-01-28T05:41:52.713Z,6.30
2019-01-28T05:44:19.352Z,6.30
2019-01-28T05:46:46.350Z,6.30
2019-01-28T05:49:14.871Z,6.30
2019-01-28T05:51:41.590Z,6.30
2019-01-28T05:54:09.253Z,6.30
2019-01-28T05:56:37.229Z,6.30
2019-01-28T05:59:03.916Z,6.20
2019-01-28T06:01:30.977Z,6.20
2019-01-28T06:03:57.767Z,6.20
2019-01-28T06:06:24.496Z,6.20
2019-01-28T06:08:51.055Z,6.20
2019-01-28T06:11:17.799Z,6.20
2019-01-28T06:13:44.549Z,6.20
2019-01-28T06:16:11.211Z,6.20
2019-01-28T06:18:38.323Z,5.80
2019-01-28T06:21:06.997Z,6.20
2019-01-28T06:23:33.515Z,6.20
2019-01-28T06:26:01.283Z,6.20
2019-01-28T06:28:28.449Z,6.20
2019-01-28T06:30:55.063Z,6.20
2019-01-28T06:33:22.163Z,6.20
2019-01-28T06:35:48.948Z,6.20
2019-01-28T06:38:15.603Z,6.20
2019-01-28T06:40:42.465Z,6.20
2019-01-28T06:43:09.526Z,6.20
2019-01-28T06:45:36.457Z,6.20
2019-01-28T06:48:03.092Z,6.20
2019-01-28T06:50:29.792Z,6.20
2019-01-28T06:52:56.543Z,6.20
2019-01-28T06:55:25.391Z,6.20
2019-01-28T06:57:52.748Z,6.20
2019-01-28T07:00:19.387Z,6.20
2019-01-28T07:02:46.436Z,6.20
2019-01-28T07:05:14.329Z,6.20
2019-01-28T07:07:41.091Z,6.20
2019-01-28T07:10:07.724Z,6.20
2019-01-28T07:12:36.265Z,6.20
2019-01-28T07:15:02.889Z,6.20
2019-01-28T07:17:31.486Z,6.20
2019-01-28T07:19:58.284Z,5.90
2019-01-28T07:22:25.064Z,6.20
2019-01-28T07:24:51.802Z,6.20
2019-01-28T07:27:18.731Z,6.20
2019-01-28T07:29:47.276Z,6.20
2019-01-28T07:32:13.970Z,6.20
2019-01-28T07:34:40.682Z,6.20
2019-01-28T07:37:07.266Z,6.20
2019-01-28T07:39:33.903Z,6.20
2019-01-28T07:42:00.578Z,6.20
2019-01-28T07:44:27.404Z,6.20
2019-01-28T07:46:54.037Z,6.20
2019-01-28T07:49:21.142Z,6.20
2019-01-28T07:51:47.884Z,6.20
2019-01-28T07:54:14.782Z,6.20
2019-01-28T07:56:41.837Z,6.20
2019-01-28T07:59:08.574Z,6.20
2019-01-28T08:01:35.294Z,6.20
2019-01-28T08:04:01.965Z,6.20
2019-01-28T08:06:28.768Z,6.20
2019-01-28T08:08:55.542Z,6.20
2019-01-28T08:11:22.502Z,6.20
2019-01-28T08:13:49.158Z,6.20
2019-01-28T08:16:15.862Z,6.10
2019-01-28T08:18:43.940Z,6.20
2019-01-28T08:21:10.705Z,5.80
2019-01-28T08:23:37.585Z,6.10
2019-01-28T08:26:04.386Z,6.10
2019-01-28T08:28:36.818Z,6.10
2019-01-28T08:30:59.767Z,6.10
2019-01-28T08:33:26.538Z,6.10
2019-01-28T08:35:53.317Z,6.10
2019-01-28T08:38:22.099Z,6.10
2019-01-28T08:40:49.179Z,6.10
2019-01-28T08:43:15.918Z,6.10
2019-01-28T08:45:42.626Z,6.20
2019-01-28T08:48:09.771Z,6.20
2019-01-28T08:50:36.413Z,6.20
2019-01-28T08:53:03.332Z,6.20
2019-01-28T08:55:30.393Z,6.20
2019-01-28T08:57:57.149Z,6.20
2019-01-28T09:00:23.857Z,6.20
2019-01-28T09:02:50.519Z,6.20
2019-01-28T09:05:17.275Z,5.90
2019-01-28T09:07:44.508Z,6.20
2019-01-28T09:10:11.255Z,6.20
2019-01-28T09:12:39.713Z,6.00
2019-01-28T09:15:06.429Z,6.20
2019-01-28T09:17:33.115Z,6.20
2019-01-28T09:20:01.602Z,6.20
2019-01-28T09:22:28.500Z,6.20
2019-01-28T09:24:56.709Z,6.20
2019-01-28T09:27:23.430Z,6.20
2019-01-28T09:29:50.027Z,6.20
2019-01-28T09:32:17.088Z,6.20
2019-01-28T09:34:46.021Z,6.20
2019-01-28T09:37:14.254Z,6.30
2019-01-28T09:39:40.898Z,6.20
2019-01-28T09:42:07.584Z,6.30
2019-01-28T09:44:34.350Z,6.30
2019-01-28T09:47:01.183Z,6.30
2019-01-28T09:49:29.084Z,6.30
2019-01-28T09:51:56.052Z,6.30
2019-01-28T09:54:22.832Z,6.30
2019-01-28T09:56:49.547Z,6.30
2019-01-28T09:59:16.386Z,5.90
2019-01-28T10:01:43.106Z,6.30
2019-01-28T10:04:09.880Z,6.30
2019-01-28T10:06:37.236Z,6.30
2019-01-28T10:09:09.962Z,6.30
2019-01-28T10:11:33.662Z,6.00
2019-01-28T10:14:00.355Z,6.30
2019-01-28T10:16:27.394Z,6.30
2019-01-28T10:18:54.188Z,6.30
2019-01-28T10:21:21.730Z,6.30
2019-01-28T10:23:48.547Z,6.30
2019-01-28T10:26:16.937Z,6.30
2019-01-28T10:28:44.798Z,6.40
2019-01-28T10:31:11.412Z,6.40
2019-01-28T10:33:38.118Z,6.40
2019-01-28T10:36:04.892Z,6.40
2019-01-28T10:38:31.476Z,6.40
2019-01-28T10:40:58.192Z,6.40
2019-01-28T11:03:43.565Z,6.40
2019-01-28T11:06:10.281Z,6.40
2019-01-28T11:08:36.855Z,6.50
2019-01-28T11:11:03.564Z,6.50
2019-01-28T11:13:30.258Z,6.50
2019-01-28T11:15:58.776Z,6.50
2019-01-28T11:18:25.359Z,6.50
2019-01-28T11:20:52.091Z,6.50
2019-01-28T11:23:19.654Z,6.50
2019-01-28T11:25:46.798Z,6.50
2019-01-28T11:28:13.695Z,6.50
2019-01-28T11:30:52.671Z,6.50
2019-01-28T11:33:19.634Z,6.50
2019-01-28T11:35:46.214Z,6.50
2019-01-28T11:38:13.305Z,6.50
2019-01-28T11:40:40.410Z,6.50
2019-01-28T11:43:07.614Z,6.60
2019-01-28T11:45:34.760Z,6.60
2019-01-28T11:48:01.939Z,6.60
2019-01-28T11:50:29.069Z,6.60
2019-01-28T11:52:55.839Z,6.60
2019-01-28T11:55:22.624Z,6.60
2019-01-28T11:57:49.406Z,6.60
2019-01-28T12:00:16.147Z,6.60
2019-01-28T12:02:44.778Z,6.70
2019-01-28T12:05:11.350Z,6.70
2019-01-28T12:07:39.326Z,6.70
2019-01-28T12:10:06.426Z,6.70
2019-01-28T12:12:33.112Z,6.70
2019-01-28T12:14:59.865Z,6.70
2019-01-28T12:17:26.922Z,6.70
2019-01-28T12:19:53.741Z,6.70
2019-01-28T12:22:20.642Z,6.70
2019-01-28T12:24:47.367Z,6.70
2019-01-28T12:27:14.371Z,6.70
2019-01-28T12:29:41.139Z,6.70
2019-01-28T12:32:08.110Z,6.70
2019-01-28T12:34:39.514Z,6.70
2019-01-28T12:37:03.474Z,6.70
2019-01-28T12:39:30.240Z,6.70
2019-01-28T12:41:56.883Z,6.70
2019-01-28T12:44:23.784Z,6.70
2019-01-28T12:46:50.382Z,6.70
2019-01-28T12:49:21.924Z,6.70
2019-01-28T12:51:45.677Z,6.60
2019-01-28T12:54:12.731Z,6.70
2019-01-28T12:56:39.468Z,6.70
2019-01-28T12:59:09.177Z,6.70
2019-01-28T13:01:34.632Z,6.70
2019-01-28T13:04:02.631Z,6.80
2019-01-28T13:06:29.700Z,6.80
2019-01-28T13:08:56.484Z,6.70
2019-01-28T13:11:23.124Z,6.80
2019-01-28T13:13:49.866Z,6.70
2019-01-28T13:16:17.656Z,6.80
2019-01-28T13:18:45.328Z,6.80
2019-01-28T13:21:14.001Z,6.80
2019-01-28T13:23:40.894Z,6.80
2019-01-28T13:26:08.150Z,6.80
2019-01-28T13:28:34.950Z,6.80
2019-01-28T13:31:01.790Z,6.80
2019-01-28T13:33:28.837Z,6.80
2019-01-28T13:35:55.568Z,6.80
2019-01-28T13:38:22.760Z,6.80
2019-01-28T13:40:49.611Z,6.80
2019-01-28T13:43:16.417Z,6.80
2019-01-28T13:45:43.234Z,6.80
2019-01-28T13:48:10.016Z,6.80
2019-01-28T13:50:37.052Z,6.80
2019-01-28T13:53:03.814Z,6.80
2019-01-28T13:55:30.728Z,6.80
2019-01-28T13:57:57.553Z,6.80
2019-01-28T14:00:24.524Z,6.80
2019-01-28T14:02:51.242Z,6.80
2019-01-28T14:05:17.975Z,6.80
2019-01-28T14:07:44.840Z,6.80
2019-01-28T14:10:11.575Z,6.80
2019-01-28T14:12:38.253Z,6.80
2019-01-28T14:15:04.884Z,6.80
2019-01-28T14:17:31.489Z,6.80
2019-01-28T14:19:58.171Z,6.80
2019-01-28T14:22:24.833Z,6.80
2019-01-28T14:24:51.485Z,6.80
2019-01-28T14:27:18.149Z,6.90
2019-01-28T14:29:44.909Z,6.90
2019-01-28T14:32:11.783Z,6.90
2019-01-28T14:34:38.423Z,6.80
2019-01-28T14:37:05.033Z,6.90
2019-01-28T14:39:32.967Z,6.90
2019-01-28T14:42:00.102Z,6.90
2019-01-28T14:44:26.854Z,6.90
2019-01-28T14:46:53.559Z,6.90
2019-01-28T14:49:20.208Z,6.90
2019-01-28T14:51:46.857Z,6.90
2019-01-28T14:54:13.522Z,6.90
2019-01-28T14:56:40.170Z,6.90
2019-01-28T14:59:06.865Z,6.90
2019-01-28T15:01:35.324Z,6.90
2019-01-28T15:04:04.062Z,6.90
2019-01-28T15:06:32.647Z,6.90
2019-01-28T15:08:59.516Z,6.90
2019-01-28T15:11:27.872Z,6.90
2019-01-28T15:13:54.592Z,6.90
2019-01-28T15:16:21.336Z,6.90
2019-01-28T15:18:47.999Z,6.80
2019-01-28T15:21:16.523Z,6.90
2019-01-28T15:23:43.502Z,6.90
2019-01-28T15:26:10.579Z,6.90
2019-01-28T15:28:37.140Z,6.90
2019-01-28T15:31:03.904Z,6.90
2019-01-28T15:33:31.209Z,6.90
2019-01-28T15:35:58.265Z,6.80
2019-01-28T15:38:24.880Z,6.80
2019-01-28T15:40:51.586Z,6.90
2019-01-28T15:43:18.305Z,6.90
2019-01-28T15:45:45.194Z,6.90
2019-01-28T15:48:12.148Z,6.80
2019-01-28T15:50:40.058Z,6.90
2019-01-28T15:53:06.744Z,6.90
2019-01-28T15:55:33.711Z,6.80
2019-01-28T15:58:00.925Z,6.90
2019-01-28T16:00:27.650Z,6.80
2019-01-28T16:02:55.395Z,6.80
2019-01-28T16:05:22.492Z,6.90
2019-01-28T16:07:49.494Z,6.90
2019-01-28T16:10:16.232Z,6.80
2019-01-28T16:12:43.367Z,6.80
2019-01-28T16:15:10.112Z,6.60
2019-01-28T16:17:36.739Z,6.80
2019-01-28T16:20:04.064Z,6.80
2019-01-28T16:22:31.079Z,6.80
2019-01-28T16:24:57.964Z,6.80
2019-01-28T16:27:24.577Z,6.80
2019-01-28T16:29:51.297Z,6.80
2019-01-28T16:32:18.199Z,6.80
2019-01-28T16:34:45.046Z,6.80
2019-01-28T16:37:12.106Z,6.80
2019-01-28T16:39:38.711Z,6.80
2019-01-28T16:42:05.503Z,6.80
2019-01-28T16:44:32.243Z,6.80
2019-01-28T16:46:59.435Z,6.80
2019-01-28T16:49:26.119Z,6.80
2019-01-28T16:51:53.675Z,6.80
2019-01-28T16:54:20.412Z,6.80
2019-01-28T16:56:47.017Z,6.80
2019-01-28T16:59:13.728Z,6.70
2019-01-28T17:01:41.332Z,6.70
2019-01-28T17:04:09.085Z,6.70
2019-01-28T17:06:37.410Z,6.70
2019-01-28T17:09:04.637Z,6.40
2019-01-28T17:11:31.681Z,6.70
2019-01-28T17:13:58.507Z,6.70
2019-01-28T17:16:25.055Z,6.70
2019-01-28T17:18:51.799Z,6.70
2019-01-28T17:21:18.520Z,6.70
2019-01-28T17:23:45.371Z,6.70
2019-01-28T17:26:13.227Z,6.70
2019-01-28T17:28:40.024Z,6.70
2019-01-28T17:31:06.721Z,6.70
2019-01-28T17:33:33.399Z,6.60
2019-01-28T17:36:00.526Z,6.60
2019-01-28T17:38:27.527Z,6.60
2019-01-28T17:40:54.266Z,6.60
2019-01-28T17:43:21.255Z,6.30
2019-01-28T17:45:48.328Z,6.40
2019-01-28T17:48:15.392Z,6.60
2019-01-28T17:50:43.840Z,6.60
2019-01-28T17:53:10.800Z,6.60
2019-01-28T17:55:37.498Z,6.60
2019-01-28T17:58:04.499Z,6.60
2019-01-28T18:00:44.031Z,6.50
2019-01-28T18:03:11.013Z,6.50
2019-01-28T18:05:39.527Z,6.50
2019-01-28T18:08:06.267Z,6.50
2019-01-28T18:10:33.447Z,6.50
2019-01-28T18:13:00.508Z,6.50
2019-01-28T18:15:27.270Z,6.50
2019-01-28T18:17:55.831Z,6.50
2019-01-28T18:20:22.545Z,6.50
2019-01-28T18:22:49.298Z,6.50
2019-01-28T18:25:16.435Z,6.50
2019-01-28T18:27:43.070Z,6.50
2019-01-28T18:30:13.016Z,6.40
2019-01-28T18:32:39.718Z,6.40
2019-01-28T18:35:06.420Z,6.40
2019-01-28T18:37:33.121Z,6.40
2019-01-28T18:39:59.824Z,6.40
2019-01-28T18:42:26.414Z,6.40
2019-01-28T18:44:53.473Z,6.40
2019-01-28T18:47:20.100Z,6.40
2019-01-28T18:49:47.016Z,6.40
2019-01-28T18:52:13.866Z,6.40
2019-01-28T18:54:40.509Z,6.40
2019-01-28T18:57:07.168Z,6.40
2019-01-28T18:59:33.877Z,6.40
2019-01-28T19:02:00.670Z,6.40
2019-01-28T19:04:27.399Z,6.40
2019-01-28T19:07:13.816Z,6.40
2019-01-28T19:10:03.118Z,6.30
2019-01-28T19:12:40.421Z,6.30
2019-01-28T19:15:38.838Z,6.30
2019-01-28T19:18:14.555Z,6.30
2019-01-28T19:21:07.738Z,6.30
2019-01-28T19:23:29.097Z,6.30
2019-01-28T19:25:55.739Z,6.30
2019-01-28T19:28:22.674Z,6.30
2019-01-28T19:30:49.443Z,6.30
2019-01-28T19:33:16.243Z,6.30
2019-01-28T19:35:43.175Z,6.30
2019-01-28T19:38:09.910Z,6.30
2019-01-28T19:40:38.403Z,6.30
2019-01-28T19:43:05.228Z,6.20
2019-01-28T19:45:31.815Z,6.20
2019-01-28T19:47:58.597Z,6.20
2019-01-28T19:50:25.260Z,6.20
2019-01-28T19:52:52.964Z,6.20
2019-01-28T19:55:20.188Z,6.20
2019-01-28T19:57:47.285Z,6.00
2019-01-28T20:00:14.477Z,6.20
2019-01-28T20:02:41.083Z,6.20
2019-01-28T20:05:07.827Z,6.20
2019-01-28T20:07:34.881Z,6.20
2019-01-28T20:10:01.624Z,6.20
2019-01-28T20:12:28.334Z,6.20
2019-01-28T20:14:55.039Z,6.20
2019-01-28T20:17:23.638Z,6.20
2019-01-28T20:19:52.499Z,6.20
2019-01-28T20:22:19.275Z,6.20
2019-01-28T20:24:46.086Z,6.20
2019-01-28T20:27:12.755Z,6.20
2019-01-28T20:29:39.754Z,6.20
2019-01-28T20:32:06.420Z,6.20
2019-01-28T20:34:43.045Z,6.10
2019-01-28T20:37:01.871Z,6.10
2019-01-28T20:39:28.692Z,6.10
2019-01-28T20:41:55.599Z,6.10
2019-01-28T20:44:22.408Z,6.10
2019-01-28T20:46:51.586Z,6.10
2019-01-28T20:49:19.992Z,6.10
2019-01-28T20:51:47.135Z,6.10
2019-01-28T20:54:14.070Z,6.10
2019-01-28T20:56:40.786Z,6.10
2019-01-28T20:59:07.564Z,6.10
2019-01-28T21:01:34.194Z,6.10
2019-01-28T21:04:01.212Z,6.00
2019-01-28T21:06:27.913Z,6.10
2019-01-28T21:08:54.537Z,6.10
2019-01-28T21:11:21.165Z,6.10
2019-01-28T21:13:47.940Z,6.10
2019-01-28T21:16:15.215Z,6.00
2019-01-28T21:18:42.896Z,6.10
2019-01-28T21:21:11.400Z,6.00
2019-01-28T21:23:40.213Z,6.00
2019-01-28T21:26:06.843Z,6.00
2019-01-28T21:28:33.537Z,5.60
2019-01-28T21:31:00.801Z,6.00
2019-01-28T21:33:29.706Z,6.00
2019-01-28T21:36:21.669Z,6.00
2019-01-28T21:38:50.224Z,6.00
2019-01-28T21:41:16.928Z,6.00
2019-01-28T21:43:43.562Z,6.00
2019-01-28T21:46:10.243Z,6.00
2019-01-28T21:48:39.670Z,6.00
2019-01-28T21:51:06.251Z,6.00
2019-01-28T21:53:34.695Z,6.00
2019-01-28T21:56:05.081Z,5.90
2019-01-28T21:58:31.577Z,5.90
2019-01-28T22:00:58.328Z,5.90
2019-01-28T22:03:25.100Z,5.90
2019-01-28T22:05:53.098Z,5.90
2019-01-28T22:08:20.809Z,5.90
2019-01-28T22:10:47.873Z,5.90
2019-01-28T22:13:14.656Z,5.90
2019-01-28T22:15:42.405Z,5.90
2019-01-28T22:18:09.410Z,5.90
2019-01-28T22:20:36.038Z,5.90
2019-01-28T22:23:02.873Z,5.90
2019-01-28T22:25:29.692Z,5.90
2019-01-28T22:27:57.462Z,5.70
2019-01-28T22:30:24.194Z,5.90
2019-01-28T22:32:51.392Z,5.80
2019-01-28T22:35:17.964Z,5.80
2019-01-28T22:37:44.773Z,5.80
2019-01-28T22:40:12.538Z,5.80
2019-01-28T22:42:39.175Z,5.80
2019-01-28T22:45:06.360Z,5.80
2019-01-28T22:47:33.142Z,5.80
2019-01-28T22:49:59.708Z,5.80
2019-01-28T22:52:26.290Z,5.80
2019-01-28T22:54:52.879Z,5.80
2019-01-28T22:57:19.831Z,5.80
2019-01-28T22:59:46.470Z,5.80
2019-01-28T23:02:13.394Z,5.80
2019-01-28T23:04:40.122Z,5.80
2019-01-28T23:07:06.872Z,5.80
2019-01-28T23:09:35.349Z,5.70
2019-01-28T23:12:03.074Z,5.80
2019-01-28T23:14:29.798Z,5.80
2019-01-28T23:16:57.621Z,5.80
2019-01-28T23:19:24.394Z,5.80
2019-01-28T23:21:52.900Z,5.80
2019-01-28T23:24:19.667Z,5.70
2019-01-28T23:26:46.408Z,5.80
2019-01-28T23:29:13.417Z,5.70
2019-01-28T23:31:41.247Z,5.70
2019-01-28T23:34:08.437Z,5.70
2019-01-28T23:36:35.374Z,5.70
2019-01-28T23:39:02.542Z,5.70
2019-01-28T23:41:29.230Z,5.70
2019-01-28T23:43:55.962Z,5.70
2019-01-28T23:46:22.928Z,5.70
2019-01-28T23:48:51.022Z,5.70
2019-01-28T23:51:17.562Z,5.70
2019-01-28T23:53:44.301Z,5.70
2019-01-28T23:56:11.276Z,5.70
2019-01-28T23:58:38.226Z,5.70
